sensor_id;sensor_type;location;lat;lon;timestamp;temperature;humidity
27671;DHT22;15077;49.704;9.908;2023-05-10T00:00:15;19.10;64.70
27671;DHT22;15077;49.704;9.908;2023-05-10T00:02:42;19.10;65.00
27671;DHT22;15077;49.704;9.908;2023-05-10T00:05:08;19.00;64.80
27671;DHT22;15077;49.704;9.908;2023-05-10T00:07:34;19.00;64.70
27671;DHT22;15077;49.704;9.908;2023-05-10T00:10:01;19.00;64.80
27671;DHT22;15077;49.704;9.908;2023-05-10T00:12:28;19.00;64.90
27671;DHT22;15077;49.704;9.908;2023-05-10T00:14:55;19.00;65.10
27671;DHT22;15077;49.704;9.908;2023-05-10T00:17:22;19.00;65.50
27671;DHT22;15077;49.704;9.908;2023-05-10T00:19:47;19.00;65.40
27671;DHT22;15077;49.704;9.908;2023-05-10T00:22:14;18.90;65.40
27671;DHT22;15077;49.704;9.908;2023-05-10T00:24:40;18.90;65.30
27671;DHT22;15077;49.704;9.908;2023-05-10T00:27:05;18.90;65.40
27671;DHT22;15077;49.704;9.908;2023-05-10T00:29:31;18.90;65.80
27671;DHT22;15077;49.704;9.908;2023-05-10T00:31:59;18.80;66.00
27671;DHT22;15077;49.704;9.908;2023-05-10T00:34:27;18.80;66.00
27671;DHT22;15077;49.704;9.908;2023-05-10T00:36:54;18.70;65.90
27671;DHT22;15077;49.704;9.908;2023-05-10T00:39:20;18.70;65.90
27671;DHT22;15077;49.704;9.908;2023-05-10T00:41:46;18.60;65.90
27671;DHT22;15077;49.704;9.908;2023-05-10T00:44:12;18.60;66.00
27671;DHT22;15077;49.704;9.908;2023-05-10T00:46:38;18.60;66.50
27671;DHT22;15077;49.704;9.908;2023-05-10T00:49:06;18.50;66.40
27671;DHT22;15077;49.704;9.908;2023-05-10T00:51:32;18.50;66.30
27671;DHT22;15077;49.704;9.908;2023-05-10T00:53:59;18.50;66.90
27671;DHT22;15077;49.704;9.908;2023-05-10T00:56:25;18.50;66.60
27671;DHT22;15077;49.704;9.908;2023-05-10T00:58:52;18.50;66.40
27671;DHT22;15077;49.704;9.908;2023-05-10T01:01:20;18.40;66.90
27671;DHT22;15077;49.704;9.908;2023-05-10T01:03:50;18.40;67.10
27671;DHT22;15077;49.704;9.908;2023-05-10T01:06:16;18.40;66.80
27671;DHT22;15077;49.704;9.908;2023-05-10T01:08:42;18.40;67.00
27671;DHT22;15077;49.704;9.908;2023-05-10T01:11:08;18.30;66.90
27671;DHT22;15077;49.704;9.908;2023-05-10T01:13:37;18.30;67.20
27671;DHT22;15077;49.704;9.908;2023-05-10T01:16:08;18.30;67.20
27671;DHT22;15077;49.704;9.908;2023-05-10T01:18:41;18.30;67.60
27671;DHT22;15077;49.704;9.908;2023-05-10T01:21:31;18.30;67.60
27671;DHT22;15077;49.704;9.908;2023-05-10T01:27:58;18.30;67.80
27671;DHT22;15077;49.704;9.908;2023-05-10T01:33:58;18.20;68.10
27671;DHT22;15077;49.704;9.908;2023-05-10T01:36:35;18.20;68.70
27671;DHT22;15077;49.704;9.908;2023-05-10T01:39:44;18.10;68.20
27671;DHT22;15077;49.704;9.908;2023-05-10T01:42:27;18.10;68.30
27671;DHT22;15077;49.704;9.908;2023-05-10T01:45:29;18.00;68.00
27671;DHT22;15077;49.704;9.908;2023-05-10T01:48:19;18.00;68.40
27671;DHT22;15077;49.704;9.908;2023-05-10T01:50:48;18.00;67.90
27671;DHT22;15077;49.704;9.908;2023-05-10T01:53:20;17.90;68.00
27671;DHT22;15077;49.704;9.908;2023-05-10T01:55:52;17.90;68.10
27671;DHT22;15077;49.704;9.908;2023-05-10T01:58:28;17.90;67.90
27671;DHT22;15077;49.704;9.908;2023-05-10T02:01:01;17.90;68.00
27671;DHT22;15077;49.704;9.908;2023-05-10T02:03:31;17.80;68.10
27671;DHT22;15077;49.704;9.908;2023-05-10T02:06:01;17.80;68.00
27671;DHT22;15077;49.704;9.908;2023-05-10T02:08:29;17.80;68.00
27671;DHT22;15077;49.704;9.908;2023-05-10T02:11:05;17.70;67.90
27671;DHT22;15077;49.704;9.908;2023-05-10T02:13:34;17.70;67.90
27671;DHT22;15077;49.704;9.908;2023-05-10T02:16:03;17.70;67.90
27671;DHT22;15077;49.704;9.908;2023-05-10T02:18:34;17.70;68.00
27671;DHT22;15077;49.704;9.908;2023-05-10T02:21:02;17.60;68.10
27671;DHT22;15077;49.704;9.908;2023-05-10T02:23:29;17.60;67.90
27671;DHT22;15077;49.704;9.908;2023-05-10T02:25:59;17.60;67.90
27671;DHT22;15077;49.704;9.908;2023-05-10T02:28:28;17.50;68.00
27671;DHT22;15077;49.704;9.908;2023-05-10T02:30:58;17.60;68.00
27671;DHT22;15077;49.704;9.908;2023-05-10T02:33:27;17.50;67.80
27671;DHT22;15077;49.704;9.908;2023-05-10T02:35:55;17.50;67.90
27671;DHT22;15077;49.704;9.908;2023-05-10T02:38:23;17.50;67.90
27671;DHT22;15077;49.704;9.908;2023-05-10T02:40:54;17.50;67.90
27671;DHT22;15077;49.704;9.908;2023-05-10T02:43:23;17.40;67.90
27671;DHT22;15077;49.704;9.908;2023-05-10T02:45:52;17.40;67.90
27671;DHT22;15077;49.704;9.908;2023-05-10T02:48:19;17.40;67.90
27671;DHT22;15077;49.704;9.908;2023-05-10T02:50:45;17.40;67.90
27671;DHT22;15077;49.704;9.908;2023-05-10T02:53:27;17.30;67.70
27671;DHT22;15077;49.704;9.908;2023-05-10T02:56:00;17.30;68.00
27671;DHT22;15077;49.704;9.908;2023-05-10T02:58:33;17.30;67.80
27671;DHT22;15077;49.704;9.908;2023-05-10T03:01:01;17.20;67.60
27671;DHT22;15077;49.704;9.908;2023-05-10T03:03:27;17.20;67.90
27671;DHT22;15077;49.704;9.908;2023-05-10T03:05:54;17.20;67.80
27671;DHT22;15077;49.704;9.908;2023-05-10T03:08:22;17.20;67.90
27671;DHT22;15077;49.704;9.908;2023-05-10T03:11:12;17.10;67.90
27671;DHT22;15077;49.704;9.908;2023-05-10T03:14:02;17.10;68.00
27671;DHT22;15077;49.704;9.908;2023-05-10T03:17:00;17.10;68.10
27671;DHT22;15077;49.704;9.908;2023-05-10T03:19:57;17.10;68.10
27671;DHT22;15077;49.704;9.908;2023-05-10T03:22:39;17.10;68.40
27671;DHT22;15077;49.704;9.908;2023-05-10T03:25:11;17.00;68.30
27671;DHT22;15077;49.704;9.908;2023-05-10T03:27:42;17.00;68.20
27671;DHT22;15077;49.704;9.908;2023-05-10T03:30:11;17.00;68.30
27671;DHT22;15077;49.704;9.908;2023-05-10T03:32:37;16.90;68.30
27671;DHT22;15077;49.704;9.908;2023-05-10T03:35:08;16.90;68.20
27671;DHT22;15077;49.704;9.908;2023-05-10T03:37:36;16.90;68.30
27671;DHT22;15077;49.704;9.908;2023-05-10T03:40:04;16.90;68.30
27671;DHT22;15077;49.704;9.908;2023-05-10T03:42:30;16.90;68.90
27671;DHT22;15077;49.704;9.908;2023-05-10T03:44:57;16.90;68.30
27671;DHT22;15077;49.704;9.908;2023-05-10T03:47:24;16.80;68.30
27671;DHT22;15077;49.704;9.908;2023-05-10T03:49:50;16.80;68.40
27671;DHT22;15077;49.704;9.908;2023-05-10T03:52:19;16.80;68.30
27671;DHT22;15077;49.704;9.908;2023-05-10T03:54:44;16.80;68.40
27671;DHT22;15077;49.704;9.908;2023-05-10T03:57:10;16.80;68.40
27671;DHT22;15077;49.704;9.908;2023-05-10T03:59:36;16.80;68.50
27671;DHT22;15077;49.704;9.908;2023-05-10T04:02:02;16.70;68.50
27671;DHT22;15077;49.704;9.908;2023-05-10T04:04:28;16.70;68.40
27671;DHT22;15077;49.704;9.908;2023-05-10T04:06:54;16.70;68.60
27671;DHT22;15077;49.704;9.908;2023-05-10T04:09:20;16.70;68.70
27671;DHT22;15077;49.704;9.908;2023-05-10T04:11:46;16.70;68.80
27671;DHT22;15077;49.704;9.908;2023-05-10T04:14:11;16.70;69.10
27671;DHT22;15077;49.704;9.908;2023-05-10T04:16:37;16.70;68.90
27671;DHT22;15077;49.704;9.908;2023-05-10T04:19:03;16.70;69.00
27671;DHT22;15077;49.704;9.908;2023-05-10T04:21:29;16.70;69.10
27671;DHT22;15077;49.704;9.908;2023-05-10T04:23:55;16.70;69.20
27671;DHT22;15077;49.704;9.908;2023-05-10T04:26:21;16.70;69.50
27671;DHT22;15077;49.704;9.908;2023-05-10T04:28:47;16.70;69.50
27671;DHT22;15077;49.704;9.908;2023-05-10T04:31:13;16.70;69.50
27671;DHT22;15077;49.704;9.908;2023-05-10T04:33:38;16.70;69.40
27671;DHT22;15077;49.704;9.908;2023-05-10T04:36:04;16.70;69.50
27671;DHT22;15077;49.704;9.908;2023-05-10T04:38:31;16.70;69.50
27671;DHT22;15077;49.704;9.908;2023-05-10T04:41:10;16.70;70.20
27671;DHT22;15077;49.704;9.908;2023-05-10T04:43:37;16.70;69.60
27671;DHT22;15077;49.704;9.908;2023-05-10T04:46:04;16.70;69.60
27671;DHT22;15077;49.704;9.908;2023-05-10T04:48:30;16.70;70.20
27671;DHT22;15077;49.704;9.908;2023-05-10T04:50:56;16.70;69.80
27671;DHT22;15077;49.704;9.908;2023-05-10T04:53:22;16.70;69.80
27671;DHT22;15077;49.704;9.908;2023-05-10T04:55:48;16.70;69.80
27671;DHT22;15077;49.704;9.908;2023-05-10T04:58:14;16.60;69.80
27671;DHT22;15077;49.704;9.908;2023-05-10T05:00:40;16.70;69.80
27671;DHT22;15077;49.704;9.908;2023-05-10T05:03:06;16.60;69.80
27671;DHT22;15077;49.704;9.908;2023-05-10T05:05:31;16.60;69.90
27671;DHT22;15077;49.704;9.908;2023-05-10T05:07:57;16.60;70.20
27671;DHT22;15077;49.704;9.908;2023-05-10T05:10:23;16.60;70.10
27671;DHT22;15077;49.704;9.908;2023-05-10T05:12:48;16.60;70.10
27671;DHT22;15077;49.704;9.908;2023-05-10T05:15:14;16.60;70.10
27671;DHT22;15077;49.704;9.908;2023-05-10T05:17:42;16.60;70.20
27671;DHT22;15077;49.704;9.908;2023-05-10T05:20:09;16.60;70.20
27671;DHT22;15077;49.704;9.908;2023-05-10T05:22:38;16.60;70.20
27671;DHT22;15077;49.704;9.908;2023-05-10T05:25:05;16.60;70.30
27671;DHT22;15077;49.704;9.908;2023-05-10T05:27:31;16.70;70.40
27671;DHT22;15077;49.704;9.908;2023-05-10T05:29:58;16.70;70.40
27671;DHT22;15077;49.704;9.908;2023-05-10T05:32:24;16.70;70.40
27671;DHT22;15077;49.704;9.908;2023-05-10T05:34:51;16.70;70.40
27671;DHT22;15077;49.704;9.908;2023-05-10T05:37:18;16.70;70.40
27671;DHT22;15077;49.704;9.908;2023-05-10T05:39:45;16.70;70.40
27671;DHT22;15077;49.704;9.908;2023-05-10T05:42:12;16.70;71.00
27671;DHT22;15077;49.704;9.908;2023-05-10T05:44:38;16.80;70.40
27671;DHT22;15077;49.704;9.908;2023-05-10T05:47:05;16.80;70.40
27671;DHT22;15077;49.704;9.908;2023-05-10T05:49:32;16.80;70.50
27671;DHT22;15077;49.704;9.908;2023-05-10T05:52:04;16.80;70.40
27671;DHT22;15077;49.704;9.908;2023-05-10T05:54:30;16.80;70.60
27671;DHT22;15077;49.704;9.908;2023-05-10T05:56:58;16.90;70.60
27671;DHT22;15077;49.704;9.908;2023-05-10T05:59:24;16.90;70.50
27671;DHT22;15077;49.704;9.908;2023-05-10T06:01:50;16.90;71.20
27671;DHT22;15077;49.704;9.908;2023-05-10T06:04:16;16.90;70.60
27671;DHT22;15077;49.704;9.908;2023-05-10T06:06:42;16.90;70.50
27671;DHT22;15077;49.704;9.908;2023-05-10T06:09:08;16.90;70.70
27671;DHT22;15077;49.704;9.908;2023-05-10T06:11:34;17.00;70.70
27671;DHT22;15077;49.704;9.908;2023-05-10T06:14:01;17.00;70.70
27671;DHT22;15077;49.704;9.908;2023-05-10T06:16:29;17.00;70.60
27671;DHT22;15077;49.704;9.908;2023-05-10T06:18:54;17.00;70.60
27671;DHT22;15077;49.704;9.908;2023-05-10T06:21:20;17.00;70.60
27671;DHT22;15077;49.704;9.908;2023-05-10T06:23:46;17.00;70.60
27671;DHT22;15077;49.704;9.908;2023-05-10T06:26:12;17.10;70.60
27671;DHT22;15077;49.704;9.908;2023-05-10T06:28:39;17.10;70.70
27671;DHT22;15077;49.704;9.908;2023-05-10T06:31:05;17.10;70.50
27671;DHT22;15077;49.704;9.908;2023-05-10T06:33:32;17.10;70.60
27671;DHT22;15077;49.704;9.908;2023-05-10T06:35:58;17.10;70.50
27671;DHT22;15077;49.704;9.908;2023-05-10T06:38:24;17.10;70.80
27671;DHT22;15077;49.704;9.908;2023-05-10T06:40:50;17.10;71.50
27671;DHT22;15077;49.704;9.908;2023-05-10T06:43:16;17.10;70.90
27671;DHT22;15077;49.704;9.908;2023-05-10T06:45:41;17.20;71.30
27671;DHT22;15077;49.704;9.908;2023-05-10T06:48:07;17.20;71.30
27671;DHT22;15077;49.704;9.908;2023-05-10T06:50:33;17.20;71.30
27671;DHT22;15077;49.704;9.908;2023-05-10T06:53:00;17.20;71.20
27671;DHT22;15077;49.704;9.908;2023-05-10T06:55:27;17.30;71.30
27671;DHT22;15077;49.704;9.908;2023-05-10T06:57:53;17.30;71.30
27671;DHT22;15077;49.704;9.908;2023-05-10T07:00:19;17.40;71.20
27671;DHT22;15077;49.704;9.908;2023-05-10T07:02:45;17.40;71.10
27671;DHT22;15077;49.704;9.908;2023-05-10T07:05:12;17.50;71.00
27671;DHT22;15077;49.704;9.908;2023-05-10T07:07:38;17.50;70.90
27671;DHT22;15077;49.704;9.908;2023-05-10T07:10:05;17.50;70.70
27671;DHT22;15077;49.704;9.908;2023-05-10T07:12:32;17.60;70.70
27671;DHT22;15077;49.704;9.908;2023-05-10T07:14:58;17.60;70.80
27671;DHT22;15077;49.704;9.908;2023-05-10T07:17:24;17.60;70.70
27671;DHT22;15077;49.704;9.908;2023-05-10T07:19:50;17.70;70.60
27671;DHT22;15077;49.704;9.908;2023-05-10T07:22:16;17.70;71.10
27671;DHT22;15077;49.704;9.908;2023-05-10T07:24:42;17.70;70.10
27671;DHT22;15077;49.704;9.908;2023-05-10T07:27:08;17.70;70.10
27671;DHT22;15077;49.704;9.908;2023-05-10T07:29:34;17.70;70.10
27671;DHT22;15077;49.704;9.908;2023-05-10T07:32:01;17.80;70.20
27671;DHT22;15077;49.704;9.908;2023-05-10T07:34:27;17.80;70.00
27671;DHT22;15077;49.704;9.908;2023-05-10T07:36:53;17.80;70.00
27671;DHT22;15077;49.704;9.908;2023-05-10T07:39:19;17.80;69.90
27671;DHT22;15077;49.704;9.908;2023-05-10T07:41:46;17.90;69.90
27671;DHT22;15077;49.704;9.908;2023-05-10T07:44:11;17.90;69.70
27671;DHT22;15077;49.704;9.908;2023-05-10T07:46:37;17.90;69.60
27671;DHT22;15077;49.704;9.908;2023-05-10T07:49:03;17.90;69.30
27671;DHT22;15077;49.704;9.908;2023-05-10T07:51:29;17.90;69.30
27671;DHT22;15077;49.704;9.908;2023-05-10T07:53:55;18.00;69.30
27671;DHT22;15077;49.704;9.908;2023-05-10T07:56:28;18.00;69.90
27671;DHT22;15077;49.704;9.908;2023-05-10T07:58:55;18.00;69.40
27671;DHT22;15077;49.704;9.908;2023-05-10T08:01:22;18.00;69.50
27671;DHT22;15077;49.704;9.908;2023-05-10T08:03:48;18.10;69.30
27671;DHT22;15077;49.704;9.908;2023-05-10T08:06:18;18.10;69.90
27671;DHT22;15077;49.704;9.908;2023-05-10T08:08:48;18.10;69.10
27671;DHT22;15077;49.704;9.908;2023-05-10T08:11:16;18.20;68.90
27671;DHT22;15077;49.704;9.908;2023-05-10T08:13:43;18.20;68.70
27671;DHT22;15077;49.704;9.908;2023-05-10T08:16:10;18.20;68.50
27671;DHT22;15077;49.704;9.908;2023-05-10T08:18:36;18.20;68.50
27671;DHT22;15077;49.704;9.908;2023-05-10T08:21:02;18.30;68.50
27671;DHT22;15077;49.704;9.908;2023-05-10T08:23:28;18.30;68.60
27671;DHT22;15077;49.704;9.908;2023-05-10T08:25:54;18.30;68.80
27671;DHT22;15077;49.704;9.908;2023-05-10T08:28:19;18.40;68.80
27671;DHT22;15077;49.704;9.908;2023-05-10T08:30:45;18.50;68.50
27671;DHT22;15077;49.704;9.908;2023-05-10T08:33:11;18.50;68.20
27671;DHT22;15077;49.704;9.908;2023-05-10T08:35:36;18.50;67.60
27671;DHT22;15077;49.704;9.908;2023-05-10T08:38:02;18.60;67.50
27671;DHT22;15077;49.704;9.908;2023-05-10T08:40:28;18.50;67.70
27671;DHT22;15077;49.704;9.908;2023-05-10T08:43:06;18.50;67.10
27671;DHT22;15077;49.704;9.908;2023-05-10T08:45:37;18.50;67.10
27671;DHT22;15077;49.704;9.908;2023-05-10T08:48:09;18.50;67.10
27671;DHT22;15077;49.704;9.908;2023-05-10T08:50:36;18.50;67.10
27671;DHT22;15077;49.704;9.908;2023-05-10T08:53:10;18.50;67.00
27671;DHT22;15077;49.704;9.908;2023-05-10T08:55:37;18.50;67.10
27671;DHT22;15077;49.704;9.908;2023-05-10T08:58:05;18.60;67.70
27671;DHT22;15077;49.704;9.908;2023-05-10T09:00:32;18.60;67.20
27671;DHT22;15077;49.704;9.908;2023-05-10T09:02:59;18.60;67.30
27671;DHT22;15077;49.704;9.908;2023-05-10T09:05:25;18.70;67.20
27671;DHT22;15077;49.704;9.908;2023-05-10T09:07:52;18.70;67.30
27671;DHT22;15077;49.704;9.908;2023-05-10T09:10:19;18.80;68.10
27671;DHT22;15077;49.704;9.908;2023-05-10T09:12:45;18.80;67.20
27671;DHT22;15077;49.704;9.908;2023-05-10T09:15:15;18.90;66.90
27671;DHT22;15077;49.704;9.908;2023-05-10T09:17:42;18.90;66.60
27671;DHT22;15077;49.704;9.908;2023-05-10T09:20:09;18.90;66.40
27671;DHT22;15077;49.704;9.908;2023-05-10T09:22:35;19.00;66.50
27671;DHT22;15077;49.704;9.908;2023-05-10T09:27:31;19.10;66.60
27671;DHT22;15077;49.704;9.908;2023-05-10T09:29:57;19.10;66.70
27671;DHT22;15077;49.704;9.908;2023-05-10T09:32:39;19.10;66.10
27671;DHT22;15077;49.704;9.908;2023-05-10T09:35:09;19.20;66.00
27671;DHT22;15077;49.704;9.908;2023-05-10T09:37:39;19.20;65.80
27671;DHT22;15077;49.704;9.908;2023-05-10T09:40:15;19.20;65.80
27671;DHT22;15077;49.704;9.908;2023-05-10T09:42:43;19.20;65.80
27671;DHT22;15077;49.704;9.908;2023-05-10T09:45:32;19.30;65.90
27671;DHT22;15077;49.704;9.908;2023-05-10T09:48:00;19.30;66.10
27671;DHT22;15077;49.704;9.908;2023-05-10T09:50:28;19.40;66.50
27671;DHT22;15077;49.704;9.908;2023-05-10T09:52:57;19.50;66.00
27671;DHT22;15077;49.704;9.908;2023-05-10T09:55:41;19.60;65.70
27671;DHT22;15077;49.704;9.908;2023-05-10T09:58:13;19.70;65.50
27671;DHT22;15077;49.704;9.908;2023-05-10T10:00:41;19.70;65.50
27671;DHT22;15077;49.704;9.908;2023-05-10T10:03:16;19.80;65.40
27671;DHT22;15077;49.704;9.908;2023-05-10T10:05:44;19.90;65.00
27671;DHT22;15077;49.704;9.908;2023-05-10T10:08:11;19.90;64.30
27671;DHT22;15077;49.704;9.908;2023-05-10T10:10:37;20.00;65.00
27671;DHT22;15077;49.704;9.908;2023-05-10T10:13:05;20.00;64.00
27671;DHT22;15077;49.704;9.908;2023-05-10T10:15:33;20.00;64.00
27671;DHT22;15077;49.704;9.908;2023-05-10T10:18:00;20.00;64.10
27671;DHT22;15077;49.704;9.908;2023-05-10T10:20:27;20.00;64.30
27671;DHT22;15077;49.704;9.908;2023-05-10T10:22:53;20.00;64.50
27671;DHT22;15077;49.704;9.908;2023-05-10T10:25:20;20.00;64.20
27671;DHT22;15077;49.704;9.908;2023-05-10T10:28:15;20.00;64.20
27671;DHT22;15077;49.704;9.908;2023-05-10T10:30:50;20.10;64.00
27671;DHT22;15077;49.704;9.908;2023-05-10T10:33:36;20.10;63.40
27671;DHT22;15077;49.704;9.908;2023-05-10T10:36:09;20.10;63.40
27671;DHT22;15077;49.704;9.908;2023-05-10T10:38:37;20.10;63.50
27671;DHT22;15077;49.704;9.908;2023-05-10T10:41:33;20.20;63.70
27671;DHT22;15077;49.704;9.908;2023-05-10T10:52:21;20.30;63.10
27671;DHT22;15077;49.704;9.908;2023-05-10T10:57:43;20.40;63.20
27671;DHT22;15077;49.704;9.908;2023-05-10T11:00:24;20.50;63.30
27671;DHT22;15077;49.704;9.908;2023-05-10T11:02:58;20.50;62.90
27671;DHT22;15077;49.704;9.908;2023-05-10T11:05:40;20.50;62.60
27671;DHT22;15077;49.704;9.908;2023-05-10T11:08:12;20.60;62.80
27671;DHT22;15077;49.704;9.908;2023-05-10T11:13:34;20.80;62.90
27671;DHT22;15077;49.704;9.908;2023-05-10T11:16:12;20.90;62.30
27671;DHT22;15077;49.704;9.908;2023-05-10T11:18:58;20.90;62.60
27671;DHT22;15077;49.704;9.908;2023-05-10T11:21:28;21.00;62.70
27671;DHT22;15077;49.704;9.908;2023-05-10T11:23:56;21.00;62.30
27671;DHT22;15077;49.704;9.908;2023-05-10T11:26:34;21.00;62.30
27671;DHT22;15077;49.704;9.908;2023-05-10T11:29:01;21.10;61.90
27671;DHT22;15077;49.704;9.908;2023-05-10T11:31:28;21.10;61.40
27671;DHT22;15077;49.704;9.908;2023-05-10T11:33:56;21.10;61.60
27671;DHT22;15077;49.704;9.908;2023-05-10T11:36:28;21.20;61.50
27671;DHT22;15077;49.704;9.908;2023-05-10T11:39:00;21.20;61.80
27671;DHT22;15077;49.704;9.908;2023-05-10T11:41:28;21.30;61.70
27671;DHT22;15077;49.704;9.908;2023-05-10T11:43:56;21.30;61.40
27671;DHT22;15077;49.704;9.908;2023-05-10T11:46:27;21.40;61.10
27671;DHT22;15077;49.704;9.908;2023-05-10T11:48:58;21.40;60.60
27671;DHT22;15077;49.704;9.908;2023-05-10T11:51:27;21.40;61.00
27671;DHT22;15077;49.704;9.908;2023-05-10T11:53:54;21.40;60.90
27671;DHT22;15077;49.704;9.908;2023-05-10T11:56:21;21.40;60.90
27671;DHT22;15077;49.704;9.908;2023-05-10T11:58:56;21.40;60.70
27671;DHT22;15077;49.704;9.908;2023-05-10T12:01:23;21.40;60.60
27671;DHT22;15077;49.704;9.908;2023-05-10T12:03:51;21.40;60.80
27671;DHT22;15077;49.704;9.908;2023-05-10T12:06:19;21.40;60.70
27671;DHT22;15077;49.704;9.908;2023-05-10T12:08:47;21.40;60.50
27671;DHT22;15077;49.704;9.908;2023-05-10T12:11:15;21.40;60.50
27671;DHT22;15077;49.704;9.908;2023-05-10T12:14:04;21.40;60.90
27671;DHT22;15077;49.704;9.908;2023-05-10T12:16:34;21.50;60.30
27671;DHT22;15077;49.704;9.908;2023-05-10T12:19:01;21.50;60.00
27671;DHT22;15077;49.704;9.908;2023-05-10T12:21:28;21.50;59.70
27671;DHT22;15077;49.704;9.908;2023-05-10T12:24:01;21.50;60.00
27671;DHT22;15077;49.704;9.908;2023-05-10T12:26:29;21.60;60.20
27671;DHT22;15077;49.704;9.908;2023-05-10T12:29:11;21.60;60.20
27671;DHT22;15077;49.704;9.908;2023-05-10T12:34:30;21.70;59.30
27671;DHT22;15077;49.704;9.908;2023-05-10T12:36:57;21.70;58.10
27671;DHT22;15077;49.704;9.908;2023-05-10T12:39:24;21.60;57.20
27671;DHT22;15077;49.704;9.908;2023-05-10T12:41:51;21.50;56.90
27671;DHT22;15077;49.704;9.908;2023-05-10T12:44:17;21.30;57.00
27671;DHT22;15077;49.704;9.908;2023-05-10T12:46:43;21.10;57.00
27671;DHT22;15077;49.704;9.908;2023-05-10T12:49:09;21.00;57.30
27671;DHT22;15077;49.704;9.908;2023-05-10T12:51:35;20.80;57.40
27671;DHT22;15077;49.704;9.908;2023-05-10T12:54:02;20.60;57.50
27671;DHT22;15077;49.704;9.908;2023-05-10T12:56:32;20.50;58.00
27671;DHT22;15077;49.704;9.908;2023-05-10T12:58:58;20.40;58.20
27671;DHT22;15077;49.704;9.908;2023-05-10T13:01:23;20.20;59.00
27671;DHT22;15077;49.704;9.908;2023-05-10T13:03:49;20.10;58.60
27671;DHT22;15077;49.704;9.908;2023-05-10T13:06:15;20.00;59.10
27671;DHT22;15077;49.704;9.908;2023-05-10T13:08:41;19.90;59.50
27671;DHT22;15077;49.704;9.908;2023-05-10T13:11:07;19.80;59.90
27671;DHT22;15077;49.704;9.908;2023-05-10T13:13:33;19.70;60.30
27671;DHT22;15077;49.704;9.908;2023-05-10T13:15:58;19.60;60.60
27671;DHT22;15077;49.704;9.908;2023-05-10T13:18:24;19.60;60.90
27671;DHT22;15077;49.704;9.908;2023-05-10T13:20:51;19.50;61.10
27671;DHT22;15077;49.704;9.908;2023-05-10T13:23:17;19.50;61.30
27671;DHT22;15077;49.704;9.908;2023-05-10T13:25:43;19.50;61.50
27671;DHT22;15077;49.704;9.908;2023-05-10T13:28:08;19.40;61.80
27671;DHT22;15077;49.704;9.908;2023-05-10T13:30:34;19.40;61.90
27671;DHT22;15077;49.704;9.908;2023-05-10T13:33:00;19.40;62.10
27671;DHT22;15077;49.704;9.908;2023-05-10T13:35:26;19.40;62.20
27671;DHT22;15077;49.704;9.908;2023-05-10T13:37:51;19.40;62.30
27671;DHT22;15077;49.704;9.908;2023-05-10T13:40:18;19.40;62.50
27671;DHT22;15077;49.704;9.908;2023-05-10T13:42:44;19.40;62.60
27671;DHT22;15077;49.704;9.908;2023-05-10T13:45:10;19.40;62.60
27671;DHT22;15077;49.704;9.908;2023-05-10T13:47:38;19.40;62.70
27671;DHT22;15077;49.704;9.908;2023-05-10T13:50:04;19.40;62.70
27671;DHT22;15077;49.704;9.908;2023-05-10T13:52:30;19.50;62.70
27671;DHT22;15077;49.704;9.908;2023-05-10T13:54:56;19.50;62.80
27671;DHT22;15077;49.704;9.908;2023-05-10T13:57:22;19.50;62.60
27671;DHT22;15077;49.704;9.908;2023-05-10T13:59:49;19.60;62.60
27671;DHT22;15077;49.704;9.908;2023-05-10T14:02:15;19.60;62.50
27671;DHT22;15077;49.704;9.908;2023-05-10T14:04:41;19.60;62.40
27671;DHT22;15077;49.704;9.908;2023-05-10T14:07:06;19.60;62.30
27671;DHT22;15077;49.704;9.908;2023-05-10T14:09:32;19.70;62.30
27671;DHT22;15077;49.704;9.908;2023-05-10T14:11:58;19.70;62.20
27671;DHT22;15077;49.704;9.908;2023-05-10T14:14:24;19.70;62.30
27671;DHT22;15077;49.704;9.908;2023-05-10T14:16:50;19.70;62.60
27671;DHT22;15077;49.704;9.908;2023-05-10T14:19:16;19.80;62.90
27671;DHT22;15077;49.704;9.908;2023-05-10T14:21:41;19.80;63.00
27671;DHT22;15077;49.704;9.908;2023-05-10T14:24:08;19.90;62.70
27671;DHT22;15077;49.704;9.908;2023-05-10T14:26:34;19.90;62.70
27671;DHT22;15077;49.704;9.908;2023-05-10T14:29:00;20.00;63.50
27671;DHT22;15077;49.704;9.908;2023-05-10T14:31:26;20.00;62.80
27671;DHT22;15077;49.704;9.908;2023-05-10T14:33:52;20.00;62.90
27671;DHT22;15077;49.704;9.908;2023-05-10T14:36:18;20.00;62.80
27671;DHT22;15077;49.704;9.908;2023-05-10T14:38:44;20.10;62.90
27671;DHT22;15077;49.704;9.908;2023-05-10T14:41:09;20.10;62.90
27671;DHT22;15077;49.704;9.908;2023-05-10T14:43:39;20.10;62.70
27671;DHT22;15077;49.704;9.908;2023-05-10T14:46:05;20.10;62.60
27671;DHT22;15077;49.704;9.908;2023-05-10T14:48:31;20.20;62.60
27671;DHT22;15077;49.704;9.908;2023-05-10T14:50:57;20.20;62.40
27671;DHT22;15077;49.704;9.908;2023-05-10T14:53:22;20.20;62.30
27671;DHT22;15077;49.704;9.908;2023-05-10T14:55:48;20.20;62.20
27671;DHT22;15077;49.704;9.908;2023-05-10T14:58:14;20.20;62.10
27671;DHT22;15077;49.704;9.908;2023-05-10T15:00:40;20.20;61.60
27671;DHT22;15077;49.704;9.908;2023-05-10T15:03:06;20.20;61.70
27671;DHT22;15077;49.704;9.908;2023-05-10T15:05:32;20.30;61.50
27671;DHT22;15077;49.704;9.908;2023-05-10T15:07:57;20.20;61.50
27671;DHT22;15077;49.704;9.908;2023-05-10T15:10:25;20.30;61.10
27671;DHT22;15077;49.704;9.908;2023-05-10T15:12:51;20.30;60.60
27671;DHT22;15077;49.704;9.908;2023-05-10T15:15:16;20.20;60.70
27671;DHT22;15077;49.704;9.908;2023-05-10T15:17:42;20.20;60.80
27671;DHT22;15077;49.704;9.908;2023-05-10T15:20:08;20.20;60.90
27671;DHT22;15077;49.704;9.908;2023-05-10T15:22:34;20.20;60.70
27671;DHT22;15077;49.704;9.908;2023-05-10T15:25:00;20.20;60.80
27671;DHT22;15077;49.704;9.908;2023-05-10T15:27:26;20.20;60.80
27671;DHT22;15077;49.704;9.908;2023-05-10T15:29:52;20.10;60.80
27671;DHT22;15077;49.704;9.908;2023-05-10T15:32:18;20.10;60.60
27671;DHT22;15077;49.704;9.908;2023-05-10T15:34:44;20.10;60.80
27671;DHT22;15077;49.704;9.908;2023-05-10T15:37:10;20.10;60.80
27671;DHT22;15077;49.704;9.908;2023-05-10T15:39:35;20.10;60.70
27671;DHT22;15077;49.704;9.908;2023-05-10T15:42:01;20.10;60.60
27671;DHT22;15077;49.704;9.908;2023-05-10T15:44:28;20.00;60.60
27671;DHT22;15077;49.704;9.908;2023-05-10T15:46:54;20.00;60.50
27671;DHT22;15077;49.704;9.908;2023-05-10T15:49:19;20.10;60.80
27671;DHT22;15077;49.704;9.908;2023-05-10T15:51:45;20.00;60.70
27671;DHT22;15077;49.704;9.908;2023-05-10T15:54:11;20.00;60.70
27671;DHT22;15077;49.704;9.908;2023-05-10T15:56:38;20.10;60.40
27671;DHT22;15077;49.704;9.908;2023-05-10T15:59:04;20.10;60.20
27671;DHT22;15077;49.704;9.908;2023-05-10T16:01:34;20.00;60.00
27671;DHT22;15077;49.704;9.908;2023-05-10T16:04:00;20.00;59.90